createdAt,value
2017-12-03T00:00:36.847Z,0.00
2017-12-03T00:01:36.820Z,0.00
2017-12-03T00:02:36.799Z,0.00
2017-12-03T00:03:36.774Z,0.00
2017-12-03T00:04:36.741Z,0.00
2017-12-03T00:05:36.718Z,0.00
2017-12-03T00:06:36.689Z,0.00
2017-12-03T00:07:36.661Z,0.00
2017-12-03T00:08:36.637Z,0.00
2017-12-03T00:09:36.612Z,0.00
2017-12-03T00:10:36.593Z,0.00
2017-12-03T00:11:36.555Z,0.00
2017-12-03T00:12:36.529Z,0.00
2017-12-03T00:13:36.503Z,0.00
2017-12-03T00:14:36.475Z,0.00
2017-12-03T00:15:36.454Z,0.00
2017-12-03T00:16:36.421Z,0.00
2017-12-03T00:17:36.400Z,0.00
2017-12-03T00:18:36.371Z,0.00
2017-12-03T00:19:36.350Z,0.00
2017-12-03T00:20:36.321Z,0.00
2017-12-03T00:21:36.289Z,0.00
2017-12-03T00:22:36.270Z,0.00
2017-12-03T00:23:36.239Z,0.00
2017-12-03T00:24:36.220Z,0.00
2017-12-03T00:25:36.190Z,0.00
2017-12-03T00:26:36.161Z,0.00
2017-12-03T00:27:36.144Z,0.00
2017-12-03T00:28:36.110Z,0.00
2017-12-03T00:29:36.115Z,0.00
2017-12-03T00:30:36.067Z,0.00
2017-12-03T00:31:36.032Z,0.00
2017-12-03T00:32:36.004Z,0.00
2017-12-03T00:33:35.973Z,0.00
2017-12-03T00:34:35.951Z,0.00
2017-12-03T00:35:35.920Z,0.00
2017-12-03T00:36:35.926Z,0.00
2017-12-03T00:37:35.912Z,0.00
2017-12-03T00:38:35.897Z,0.00
2017-12-03T00:39:35.820Z,0.00
2017-12-03T00:40:35.795Z,0.00
2017-12-03T00:41:35.766Z,0.00
2017-12-03T00:42:35.735Z,0.00
2017-12-03T00:43:35.715Z,0.00
2017-12-03T00:44:35.685Z,0.00
2017-12-03T00:45:35.653Z,0.00
2017-12-03T00:46:35.629Z,0.00
2017-12-03T00:47:35.603Z,0.00
2017-12-03T00:48:35.575Z,0.00
2017-12-03T00:49:35.555Z,0.00
2017-12-03T00:50:35.521Z,0.00
2017-12-03T00:51:35.501Z,0.00
2017-12-03T00:52:35.467Z,0.00
2017-12-03T00:53:35.440Z,0.00
2017-12-03T00:54:35.415Z,0.00
2017-12-03T00:55:35.390Z,0.00
2017-12-03T00:56:35.363Z,0.00
2017-12-03T00:57:35.338Z,0.00
2017-12-03T00:58:35.308Z,0.00
2017-12-03T00:59:35.282Z,0.00
2017-12-03T01:00:35.257Z,0.00
2017-12-03T01:01:35.230Z,0.00
2017-12-03T01:02:35.204Z,0.00
2017-12-03T01:03:35.174Z,0.00
2017-12-03T01:04:35.151Z,0.00
2017-12-03T01:05:35.124Z,0.00
2017-12-03T01:06:35.094Z,0.00
2017-12-03T01:07:35.072Z,0.00
2017-12-03T01:08:35.046Z,0.00
2017-12-03T01:09:35.016Z,0.00
2017-12-03T01:10:34.988Z,0.00
2017-12-03T01:11:34.965Z,0.00
2017-12-03T01:12:34.976Z,0.00
2017-12-03T01:13:34.911Z,0.00
2017-12-03T01:14:34.885Z,0.00
2017-12-03T01:15:34.859Z,0.00
2017-12-03T01:16:34.829Z,0.00
2017-12-03T01:17:34.801Z,0.00
2017-12-03T01:18:34.776Z,0.00
2017-12-03T01:19:34.764Z,0.00
2017-12-03T01:20:34.723Z,0.00
2017-12-03T01:21:55.706Z,0.00
2017-12-03T01:22:34.673Z,0.00
2017-12-03T01:23:34.644Z,0.00
2017-12-03T01:24:34.619Z,0.00
2017-12-03T01:25:34.590Z,0.00
2017-12-03T01:26:34.563Z,0.00
2017-12-03T01:27:34.535Z,0.00
2017-12-03T01:28:34.511Z,0.00
2017-12-03T01:29:34.484Z,0.00
2017-12-03T01:30:34.456Z,0.00
2017-12-03T01:31:34.489Z,0.00
2017-12-03T01:32:34.400Z,0.00
2017-12-03T01:33:34.394Z,0.00
2017-12-03T01:34:34.348Z,0.00
2017-12-03T01:35:34.323Z,0.00
2017-12-03T01:36:34.298Z,0.00
2017-12-03T01:37:34.267Z,0.00
2017-12-03T01:38:34.265Z,0.00
2017-12-03T01:39:34.216Z,0.00
2017-12-03T01:40:34.187Z,0.00
2017-12-03T01:41:34.164Z,0.00
2017-12-03T01:42:34.138Z,0.00
2017-12-03T01:43:34.110Z,0.00
2017-12-03T01:44:34.081Z,0.00
2017-12-03T01:45:34.056Z,0.00
2017-12-03T01:46:34.029Z,0.00
2017-12-03T01:47:34.053Z,0.00
2017-12-03T01:48:33.977Z,0.00
2017-12-03T01:49:33.954Z,0.00
2017-12-03T01:50:33.929Z,0.00
2017-12-03T01:51:33.902Z,0.00
2017-12-03T01:52:33.868Z,0.00
2017-12-03T01:53:33.868Z,0.00
2017-12-03T01:54:33.822Z,0.00
2017-12-03T01:55:33.798Z,0.00
2017-12-03T01:56:33.764Z,0.00
2017-12-03T01:57:33.739Z,0.00
2017-12-03T01:58:33.719Z,0.00
2017-12-03T01:59:33.686Z,0.00
2017-12-03T02:00:33.660Z,0.00
2017-12-03T02:01:33.625Z,0.00
2017-12-03T02:02:33.606Z,0.00
2017-12-03T02:03:33.577Z,0.00
2017-12-03T02:04:33.542Z,0.00
2017-12-03T02:05:33.553Z,0.00
2017-12-03T02:06:33.510Z,0.00
2017-12-03T02:07:33.473Z,0.00
2017-12-03T02:08:33.448Z,0.00
2017-12-03T02:09:33.417Z,0.00
2017-12-03T02:10:33.390Z,0.00
2017-12-03T02:11:33.384Z,0.00
2017-12-03T02:12:33.340Z,0.00
2017-12-03T02:13:33.306Z,0.00
2017-12-03T02:14:33.278Z,0.00
2017-12-03T02:15:33.266Z,0.00
2017-12-03T02:16:33.222Z,0.00
2017-12-03T02:17:33.199Z,0.00
2017-12-03T02:18:33.172Z,0.00
2017-12-03T02:19:33.143Z,0.00
2017-12-03T02:20:33.118Z,0.00
2017-12-03T02:21:33.145Z,0.00
2017-12-03T02:22:33.059Z,0.00
2017-12-03T02:23:33.037Z,0.00
2017-12-03T02:24:33.012Z,0.00
2017-12-03T02:25:32.979Z,0.00
2017-12-03T02:26:32.980Z,0.00
2017-12-03T02:27:32.933Z,0.00
2017-12-03T02:28:32.898Z,0.00
2017-12-03T02:29:32.873Z,0.00
2017-12-03T02:30:32.854Z,0.00
2017-12-03T02:31:32.827Z,0.00
2017-12-03T02:32:32.797Z,0.00
2017-12-03T02:33:32.775Z,0.00
2017-12-03T02:34:32.815Z,0.00
2017-12-03T02:35:32.717Z,0.00
2017-12-03T02:36:32.684Z,0.00
2017-12-03T02:37:32.659Z,0.00
2017-12-03T02:38:32.632Z,0.00
2017-12-03T02:39:32.619Z,0.00
2017-12-03T02:40:32.576Z,0.00
2017-12-03T02:41:32.551Z,0.00
2017-12-03T02:42:32.532Z,0.00
2017-12-03T02:43:32.505Z,0.00
2017-12-03T02:44:32.472Z,0.00
2017-12-03T02:45:32.447Z,0.00
2017-12-03T02:46:32.422Z,0.00
2017-12-03T02:47:32.386Z,0.00
2017-12-03T02:48:32.369Z,0.00
2017-12-03T02:49:32.335Z,0.00
2017-12-03T02:50:32.361Z,0.00
2017-12-03T02:51:32.289Z,0.00
2017-12-03T02:52:34.811Z,0.00
2017-12-03T02:53:32.228Z,0.00
2017-12-03T02:54:32.213Z,0.00
2017-12-03T02:55:32.203Z,0.00
2017-12-03T02:56:32.144Z,0.00
2017-12-03T02:57:32.127Z,0.00
2017-12-03T02:58:32.092Z,0.00
2017-12-03T02:59:32.065Z,0.00
2017-12-03T03:00:32.034Z,0.00
2017-12-03T03:01:32.011Z,0.00
2017-12-03T03:02:31.984Z,0.00
2017-12-03T03:03:31.965Z,0.00
2017-12-03T03:04:31.928Z,0.00
2017-12-03T03:05:31.905Z,0.00
2017-12-03T03:06:31.877Z,0.00
2017-12-03T03:07:31.849Z,0.00
2017-12-03T03:08:31.822Z,0.00
2017-12-03T03:09:31.795Z,0.00
2017-12-03T03:10:31.770Z,0.00
2017-12-03T03:11:31.741Z,0.00
2017-12-03T03:12:31.712Z,0.00
2017-12-03T03:13:31.699Z,0.00
2017-12-03T03:14:31.667Z,0.00
2017-12-03T03:15:31.634Z,0.00
2017-12-03T03:16:31.608Z,0.00
2017-12-03T03:17:31.579Z,0.00
2017-12-03T03:18:31.554Z,0.00
2017-12-03T03:19:31.526Z,0.00
2017-12-03T03:20:31.496Z,0.00
2017-12-03T03:21:31.476Z,0.00
2017-12-03T03:22:31.443Z,0.00
2017-12-03T03:23:31.417Z,0.00
2017-12-03T03:24:31.390Z,0.00
2017-12-03T03:25:31.365Z,0.00
2017-12-03T03:26:31.340Z,0.00
2017-12-03T03:27:31.309Z,0.00
2017-12-03T03:28:31.280Z,0.00
2017-12-03T03:29:31.254Z,0.00
2017-12-03T03:30:31.230Z,0.00
2017-12-03T03:31:31.203Z,0.00
2017-12-03T03:32:31.173Z,0.00
2017-12-03T03:33:31.148Z,0.00
2017-12-03T03:34:31.122Z,0.00
2017-12-03T03:35:31.092Z,0.00
2017-12-03T03:36:31.068Z,0.00
2017-12-03T03:37:31.043Z,0.00
2017-12-03T03:38:31.011Z,0.00
2017-12-03T03:39:30.991Z,0.00
2017-12-03T03:40:30.955Z,0.00
2017-12-03T03:41:30.935Z,0.00
2017-12-03T03:42:30.913Z,0.00
2017-12-03T03:43:30.888Z,0.00
2017-12-03T03:44:30.848Z,0.00
2017-12-03T03:45:30.849Z,0.00
2017-12-03T03:46:30.798Z,0.00
2017-12-03T03:47:30.775Z,0.00
2017-12-03T03:48:30.745Z,0.00
2017-12-03T03:49:30.716Z,0.00
2017-12-03T03:50:30.692Z,0.00
2017-12-03T03:51:30.667Z,0.00
2017-12-03T03:52:30.633Z,0.00
2017-12-03T03:54:06.338Z,0.00
2017-12-03T03:54:30.587Z,0.00
2017-12-03T03:55:30.555Z,0.00
2017-12-03T03:56:30.527Z,0.00
2017-12-03T03:57:30.501Z,0.00
2017-12-03T03:58:30.478Z,0.00
2017-12-03T03:59:30.444Z,0.00
2017-12-03T04:00:30.428Z,0.00
2017-12-03T04:01:30.390Z,0.00
2017-12-03T04:02:30.365Z,0.00
2017-12-03T04:03:30.344Z,0.00
2017-12-03T04:04:30.351Z,0.00
2017-12-03T04:05:30.282Z,0.00
2017-12-03T04:06:30.255Z,0.00
2017-12-03T04:07:30.230Z,0.00
2017-12-03T04:08:30.203Z,0.00
2017-12-03T04:09:30.176Z,0.00
2017-12-03T04:10:30.151Z,0.00
2017-12-03T04:11:30.126Z,0.00
2017-12-03T04:12:30.099Z,0.00
2017-12-03T04:13:30.070Z,0.00
2017-12-03T04:14:30.041Z,0.00
2017-12-03T04:15:30.016Z,0.00
2017-12-03T04:16:29.994Z,0.00
2017-12-03T04:17:29.960Z,0.00
2017-12-03T04:18:29.933Z,0.00
2017-12-03T04:19:29.914Z,0.00
2017-12-03T04:20:29.878Z,0.00
2017-12-03T04:21:29.856Z,0.00
2017-12-03T04:22:29.827Z,0.00
2017-12-03T04:23:29.798Z,0.00
2017-12-03T04:24:29.773Z,0.00
2017-12-03T04:25:29.746Z,0.00
2017-12-03T04:26:29.719Z,0.00
2017-12-03T04:27:29.692Z,0.00
2017-12-03T04:28:29.665Z,0.00
2017-12-03T04:29:29.642Z,0.00
2017-12-03T04:30:29.610Z,0.00
2017-12-03T04:31:29.584Z,0.00
2017-12-03T04:32:29.561Z,0.00
2017-12-03T04:33:29.532Z,0.00
2017-12-03T04:34:29.505Z,0.00
2017-12-03T04:35:29.480Z,0.00
2017-12-03T04:36:29.451Z,0.00
2017-12-03T04:37:29.426Z,0.00
2017-12-03T04:38:29.399Z,0.00
2017-12-03T04:39:29.378Z,0.00
2017-12-03T04:40:29.343Z,0.00
2017-12-03T04:41:29.323Z,0.00
2017-12-03T04:42:29.300Z,0.00
2017-12-03T04:43:29.264Z,0.00
2017-12-03T04:44:29.238Z,0.00
2017-12-03T04:45:29.210Z,0.00
2017-12-03T04:46:29.183Z,0.00
2017-12-03T04:47:29.159Z,0.00
2017-12-03T04:48:29.130Z,0.00
2017-12-03T04:49:29.105Z,0.00
2017-12-03T04:50:29.088Z,0.00
2017-12-03T04:51:29.050Z,0.00
2017-12-03T04:52:29.023Z,0.00
2017-12-03T04:53:29.000Z,0.00
2017-12-03T04:54:28.975Z,0.00
2017-12-03T04:55:28.949Z,0.00
2017-12-03T04:56:28.914Z,0.00
2017-12-03T04:57:28.890Z,0.00
2017-12-03T04:58:28.863Z,0.00
2017-12-03T04:59:28.844Z,0.00
2017-12-03T05:00:28.810Z,0.00
2017-12-03T05:01:28.785Z,0.00
2017-12-03T05:02:28.755Z,0.00
2017-12-03T05:03:28.736Z,0.00
2017-12-03T05:04:28.703Z,0.00
2017-12-03T05:05:28.674Z,0.00
2017-12-03T05:06:28.653Z,0.00
2017-12-03T05:07:28.636Z,0.00
2017-12-03T05:08:28.594Z,0.00
2017-12-03T05:09:28.631Z,0.00
2017-12-03T05:10:28.550Z,0.00
2017-12-03T05:11:28.517Z,0.00
2017-12-03T05:12:28.494Z,0.00
2017-12-03T05:13:28.498Z,0.00
2017-12-03T05:14:28.432Z,0.00
2017-12-03T05:15:28.411Z,0.00
2017-12-03T05:16:28.389Z,0.00
2017-12-03T05:17:28.352Z,0.00
2017-12-03T05:18:28.330Z,0.00
2017-12-03T05:19:28.314Z,0.00
2017-12-03T05:20:28.274Z,0.00
2017-12-03T05:21:28.250Z,0.00
2017-12-03T05:22:28.233Z,0.00
2017-12-03T05:23:28.192Z,0.00
2017-12-03T05:24:28.169Z,0.00
2017-12-03T05:25:28.144Z,0.00
2017-12-03T05:26:28.113Z,0.00
2017-12-03T05:27:28.090Z,0.00
2017-12-03T05:28:28.063Z,0.00
2017-12-03T05:29:28.034Z,0.00
2017-12-03T05:30:28.013Z,0.00
2017-12-03T05:31:27.982Z,0.00
2017-12-03T05:32:27.953Z,0.00
2017-12-03T05:33:27.929Z,0.00
2017-12-03T05:34:27.901Z,0.00
2017-12-03T05:35:27.869Z,0.00
2017-12-03T05:36:27.850Z,0.00
2017-12-03T05:37:27.814Z,0.00
2017-12-03T05:38:27.790Z,0.00
2017-12-03T05:39:27.766Z,0.00
2017-12-03T05:40:27.753Z,0.00
2017-12-03T05:41:27.722Z,0.00
2017-12-03T05:42:27.689Z,0.00
2017-12-03T05:43:27.658Z,0.00
2017-12-03T05:44:27.631Z,0.00
2017-12-03T05:45:27.603Z,0.00
2017-12-03T05:46:27.576Z,0.00
2017-12-03T05:47:27.600Z,0.00
2017-12-03T05:48:27.525Z,0.00
2017-12-03T05:49:27.495Z,0.00
2017-12-03T05:50:27.470Z,0.00
2017-12-03T05:51:27.448Z,0.00
2017-12-03T05:52:27.415Z,0.00
2017-12-03T05:53:27.388Z,0.00
2017-12-03T05:54:30.320Z,0.00
2017-12-03T05:55:27.335Z,0.00
2017-12-03T05:56:27.308Z,0.00
2017-12-03T05:57:27.284Z,0.00
2017-12-03T05:58:27.254Z,0.00
2017-12-03T05:59:27.229Z,0.00
2017-12-03T06:00:27.205Z,0.00
2017-12-03T06:01:27.173Z,0.00
2017-12-03T06:02:27.158Z,0.00
2017-12-03T06:03:27.127Z,0.00
2017-12-03T06:04:27.092Z,0.00
2017-12-03T06:05:27.066Z,0.00
2017-12-03T06:06:27.050Z,0.00
2017-12-03T06:07:27.020Z,0.00
2017-12-03T06:08:26.989Z,0.00
2017-12-03T06:09:26.967Z,0.00
2017-12-03T06:10:26.933Z,0.00
2017-12-03T06:11:26.954Z,0.00
2017-12-03T06:12:26.884Z,0.00
2017-12-03T06:13:26.852Z,0.00
2017-12-03T06:14:26.828Z,0.00
2017-12-03T06:15:26.801Z,0.00
2017-12-03T06:16:26.771Z,0.00
2017-12-03T06:17:26.753Z,0.00
2017-12-03T06:18:26.718Z,0.00
2017-12-03T06:19:26.691Z,0.00
2017-12-03T06:20:26.676Z,0.00
2017-12-03T06:21:26.640Z,0.00
2017-12-03T06:22:26.663Z,0.00
2017-12-03T06:23:26.593Z,0.00
2017-12-03T06:24:26.556Z,0.00
2017-12-03T06:25:26.531Z,0.00
2017-12-03T06:26:26.510Z,0.00
2017-12-03T06:27:26.479Z,0.00
2017-12-03T06:28:26.462Z,0.00
2017-12-03T06:29:26.437Z,0.00
2017-12-03T06:30:26.396Z,0.00
2017-12-03T06:31:26.379Z,0.00
2017-12-03T06:32:26.373Z,0.00
2017-12-03T06:33:26.319Z,4.00
2017-12-03T06:34:26.302Z,0.00
2017-12-03T06:35:26.275Z,0.00
2017-12-03T06:36:26.235Z,4.00
2017-12-03T06:37:26.210Z,0.00
2017-12-03T06:38:26.197Z,4.00
2017-12-03T06:39:26.157Z,4.00
2017-12-03T06:40:26.136Z,4.00
2017-12-03T06:41:26.117Z,4.00
2017-12-03T06:42:26.077Z,8.00
2017-12-03T06:43:26.047Z,8.00
2017-12-03T06:44:26.029Z,8.00
2017-12-03T06:45:25.996Z,8.00
2017-12-03T06:46:25.968Z,12.00
2017-12-03T06:47:25.964Z,12.00
2017-12-03T06:48:25.914Z,16.00
2017-12-03T06:49:25.908Z,16.00
2017-12-03T06:50:25.866Z,16.00
2017-12-03T06:51:25.835Z,20.00
2017-12-03T06:52:25.816Z,24.00
2017-12-03T06:53:25.786Z,20.00
2017-12-03T06:54:25.754Z,24.00
2017-12-03T06:55:25.733Z,24.00
2017-12-03T06:56:25.736Z,28.00
2017-12-03T06:57:25.673Z,32.00
2017-12-03T06:58:25.653Z,36.00
2017-12-03T06:59:25.628Z,44.00
2017-12-03T07:00:25.600Z,52.00
2017-12-03T07:01:25.571Z,60.00
2017-12-03T07:02:25.552Z,64.00
2017-12-03T07:03:25.511Z,68.00
2017-12-03T07:04:25.490Z,76.00
2017-12-03T07:05:25.461Z,76.00
2017-12-03T07:06:25.432Z,84.00
2017-12-03T07:07:25.411Z,88.00
2017-12-03T07:08:25.388Z,96.00
2017-12-03T07:09:25.351Z,100.00
2017-12-03T07:10:25.330Z,108.00
2017-12-03T07:11:25.301Z,112.00
2017-12-03T07:12:25.268Z,124.00
2017-12-03T07:13:25.251Z,128.00
2017-12-03T07:14:25.220Z,140.00
2017-12-03T07:15:25.195Z,152.00
2017-12-03T07:16:25.160Z,156.00
2017-12-03T07:17:25.141Z,168.00
2017-12-03T07:18:25.110Z,188.00
2017-12-03T07:19:25.090Z,208.00
2017-12-03T07:20:25.062Z,224.00
2017-12-03T07:21:25.029Z,224.00
2017-12-03T07:22:25.009Z,228.00
2017-12-03T07:23:24.977Z,248.00
2017-12-03T07:24:24.948Z,280.00
2017-12-03T07:25:24.927Z,308.00
2017-12-03T07:26:24.907Z,332.00
2017-12-03T07:27:24.867Z,352.00
2017-12-03T07:28:24.846Z,372.00
2017-12-03T07:29:24.817Z,396.00
2017-12-03T07:30:24.809Z,428.00
2017-12-03T07:31:24.824Z,444.00
2017-12-03T07:32:24.736Z,456.00
2017-12-03T07:33:24.713Z,468.00
2017-12-03T07:34:24.686Z,504.00
2017-12-03T07:35:24.657Z,532.00
2017-12-03T07:36:24.626Z,560.00
2017-12-03T07:37:24.603Z,588.00
2017-12-03T07:38:24.574Z,604.00
2017-12-03T07:39:24.547Z,624.00
2017-12-03T07:40:24.524Z,652.00
2017-12-03T07:41:24.498Z,672.00
2017-12-03T07:42:24.466Z,696.00
2017-12-03T07:43:24.441Z,732.00
2017-12-03T07:44:24.418Z,752.00
2017-12-03T07:45:24.383Z,776.00
2017-12-03T07:46:24.360Z,792.00
2017-12-03T07:47:24.337Z,808.00
2017-12-03T07:48:24.314Z,812.00
2017-12-03T07:49:24.281Z,832.00
2017-12-03T07:50:24.256Z,864.00
2017-12-03T07:51:24.225Z,888.00
2017-12-03T07:52:24.200Z,920.00
2017-12-03T07:53:24.174Z,948.00
2017-12-03T07:54:24.152Z,972.00
2017-12-03T07:55:24.128Z,988.00
2017-12-03T07:56:24.094Z,1016.00
2017-12-03T07:57:24.065Z,1044.00
2017-12-03T07:58:24.040Z,1092.00
2017-12-03T07:59:24.013Z,1112.00
2017-12-03T08:00:23.990Z,1152.00
2017-12-03T08:01:23.959Z,1180.00
2017-12-03T08:02:23.938Z,1196.00
2017-12-03T08:03:23.906Z,1232.00
2017-12-03T08:04:23.878Z,1256.00
2017-12-03T08:05:23.891Z,1272.00
2017-12-03T08:06:23.828Z,1284.00
2017-12-03T08:07:23.801Z,1304.00
2017-12-03T08:08:23.774Z,1332.00
2017-12-03T08:09:23.747Z,1364.00
2017-12-03T08:10:23.720Z,1388.00
2017-12-03T08:11:23.697Z,1384.00
2017-12-03T08:12:23.669Z,1388.00
2017-12-03T08:13:23.643Z,1396.00
2017-12-03T08:14:23.616Z,1412.00
2017-12-03T08:15:23.591Z,1428.00
2017-12-03T08:16:23.562Z,1428.00
2017-12-03T08:17:23.537Z,1412.00
2017-12-03T08:18:23.511Z,1432.00
2017-12-03T08:19:23.485Z,1368.00
2017-12-03T08:20:23.455Z,1156.00
2017-12-03T08:21:23.440Z,784.00
2017-12-03T08:22:23.410Z,808.00
2017-12-03T08:23:23.380Z,512.00
2017-12-03T08:24:23.354Z,356.00
2017-12-03T08:25:37.843Z,332.00
2017-12-03T08:26:23.298Z,324.00
2017-12-03T08:27:23.273Z,308.00
2017-12-03T08:28:23.245Z,292.00
2017-12-03T08:29:23.221Z,284.00
2017-12-03T08:30:23.192Z,280.00
2017-12-03T08:31:23.228Z,276.00
2017-12-03T08:32:23.138Z,280.00
2017-12-03T08:33:23.117Z,276.00
2017-12-03T08:34:23.098Z,276.00
2017-12-03T08:35:23.060Z,264.00
2017-12-03T08:36:23.035Z,256.00
2017-12-03T08:37:23.019Z,248.00
2017-12-03T08:38:22.981Z,248.00
2017-12-03T08:39:22.955Z,252.00
2017-12-03T08:40:22.968Z,248.00
2017-12-03T08:41:22.903Z,248.00
2017-12-03T08:42:22.878Z,244.00
2017-12-03T08:43:22.852Z,248.00
2017-12-03T08:44:22.827Z,240.00
2017-12-03T08:45:22.797Z,244.00
2017-12-03T08:46:22.771Z,240.00
2017-12-03T08:47:22.749Z,236.00
2017-12-03T08:48:22.718Z,236.00
2017-12-03T08:49:22.689Z,228.00
2017-12-03T08:50:22.663Z,228.00
2017-12-03T08:51:22.645Z,220.00
2017-12-03T08:52:22.612Z,208.00
2017-12-03T08:53:22.582Z,204.00
2017-12-03T08:54:22.564Z,196.00
2017-12-03T08:55:22.538Z,196.00
2017-12-03T08:56:22.502Z,196.00
2017-12-03T08:57:22.483Z,188.00
2017-12-03T08:58:22.461Z,188.00
2017-12-03T08:59:22.437Z,184.00
2017-12-03T09:00:22.395Z,184.00
2017-12-03T09:01:22.369Z,184.00
2017-12-03T09:02:22.344Z,184.00
2017-12-03T09:03:22.323Z,180.00
2017-12-03T09:04:22.289Z,172.00
2017-12-03T09:05:22.261Z,176.00
2017-12-03T09:06:22.241Z,168.00
2017-12-03T09:07:22.210Z,168.00
2017-12-03T09:08:22.190Z,164.00
2017-12-03T09:09:22.165Z,168.00
2017-12-03T09:10:22.137Z,168.00
2017-12-03T09:11:22.108Z,168.00
2017-12-03T09:12:22.081Z,168.00
2017-12-03T09:13:22.048Z,168.00
2017-12-03T09:14:22.028Z,168.00
2017-12-03T09:15:22.035Z,172.00
2017-12-03T09:16:21.968Z,172.00
2017-12-03T09:17:21.941Z,172.00
2017-12-03T09:18:21.924Z,172.00
2017-12-03T09:19:21.887Z,172.00
2017-12-03T09:20:21.865Z,168.00
2017-12-03T09:21:21.839Z,172.00
2017-12-03T09:22:21.810Z,172.00
2017-12-03T09:23:21.786Z,176.00
2017-12-03T09:24:21.757Z,176.00
2017-12-03T09:25:21.724Z,180.00
2017-12-03T09:26:21.716Z,180.00
2017-12-03T09:27:21.677Z,184.00
2017-12-03T09:28:21.645Z,180.00
2017-12-03T09:29:21.625Z,184.00
2017-12-03T09:30:21.600Z,192.00
2017-12-03T09:31:21.567Z,200.00
2017-12-03T09:32:21.543Z,200.00
2017-12-03T09:33:21.514Z,200.00
2017-12-03T09:34:21.487Z,196.00
2017-12-03T09:35:21.462Z,200.00
2017-12-03T09:36:21.436Z,208.00
2017-12-03T09:37:21.407Z,212.00
2017-12-03T09:38:21.381Z,220.00
2017-12-03T09:39:21.357Z,224.00
2017-12-03T09:40:21.323Z,228.00
2017-12-03T09:41:21.303Z,228.00
2017-12-03T09:42:21.273Z,236.00
2017-12-03T09:43:21.246Z,240.00
2017-12-03T09:44:21.221Z,240.00
2017-12-03T09:45:21.194Z,236.00
2017-12-03T09:46:21.165Z,232.00
2017-12-03T09:47:21.152Z,228.00
2017-12-03T09:48:21.150Z,228.00
2017-12-03T09:49:21.126Z,232.00
2017-12-03T09:50:21.058Z,232.00
2017-12-03T09:51:21.061Z,232.00
2017-12-03T09:52:21.004Z,232.00
2017-12-03T09:53:20.984Z,236.00
2017-12-03T09:54:20.953Z,236.00
2017-12-03T09:55:20.924Z,232.00
2017-12-03T09:56:35.856Z,232.00
2017-12-03T09:57:20.875Z,208.00
2017-12-03T09:58:20.845Z,204.00
2017-12-03T09:59:20.823Z,216.00
2017-12-03T10:00:20.796Z,220.00
2017-12-03T10:01:20.760Z,264.00
2017-12-03T10:02:20.737Z,276.00
2017-12-03T10:03:20.714Z,280.00
2017-12-03T10:04:20.686Z,288.00
2017-12-03T10:05:20.654Z,304.00
2017-12-03T10:06:20.632Z,312.00
2017-12-03T10:07:20.600Z,316.00
2017-12-03T10:08:20.573Z,316.00
2017-12-03T10:09:20.550Z,320.00
2017-12-03T10:10:20.528Z,312.00
2017-12-03T10:11:20.496Z,320.00
2017-12-03T10:12:20.471Z,324.00
2017-12-03T10:13:20.448Z,332.00
2017-12-03T10:14:20.417Z,336.00
2017-12-03T10:15:20.394Z,340.00
2017-12-03T10:16:20.359Z,336.00
2017-12-03T10:17:20.334Z,340.00
2017-12-03T10:18:20.309Z,340.00
2017-12-03T10:19:20.282Z,336.00
2017-12-03T10:20:20.254Z,332.00
2017-12-03T10:21:20.231Z,332.00
2017-12-03T10:22:20.201Z,332.00
2017-12-03T10:23:20.174Z,332.00
2017-12-03T10:24:20.191Z,332.00
2017-12-03T10:25:20.124Z,328.00
2017-12-03T10:26:20.093Z,300.00
2017-12-03T10:27:20.066Z,344.00
2017-12-03T10:28:20.047Z,352.00
2017-12-03T10:29:20.014Z,356.00
2017-12-03T10:30:19.987Z,356.00
2017-12-03T10:31:19.964Z,356.00
2017-12-03T10:32:19.933Z,360.00
2017-12-03T10:33:19.926Z,356.00
2017-12-03T10:34:19.883Z,352.00
2017-12-03T10:35:19.899Z,352.00
2017-12-03T10:36:19.839Z,348.00
2017-12-03T10:37:19.802Z,344.00
2017-12-03T10:38:19.783Z,336.00
2017-12-03T10:39:19.755Z,328.00
2017-12-03T10:40:19.717Z,324.00
2017-12-03T10:41:19.693Z,320.00
2017-12-03T10:42:19.675Z,324.00
2017-12-03T10:43:19.640Z,324.00
2017-12-03T10:44:19.613Z,320.00
2017-12-03T10:45:19.592Z,324.00
2017-12-03T10:46:19.567Z,328.00
2017-12-03T10:47:19.532Z,328.00
2017-12-03T10:48:19.506Z,328.00
2017-12-03T10:49:19.471Z,320.00
2017-12-03T10:50:19.451Z,304.00
2017-12-03T10:51:19.425Z,312.00
2017-12-03T10:52:19.393Z,304.00
2017-12-03T10:53:19.370Z,296.00
2017-12-03T10:54:19.345Z,300.00
2017-12-03T10:55:19.312Z,304.00
2017-12-03T10:56:19.285Z,304.00
2017-12-03T10:57:19.264Z,300.00
2017-12-03T10:58:19.277Z,296.00
2017-12-03T10:59:19.206Z,292.00
2017-12-03T11:00:19.190Z,300.00
2017-12-03T11:01:19.151Z,284.00
2017-12-03T11:02:19.139Z,284.00
2017-12-03T11:03:19.107Z,276.00
2017-12-03T11:04:19.073Z,284.00
2017-12-03T11:05:19.044Z,288.00
2017-12-03T11:06:19.025Z,284.00
2017-12-03T11:07:18.990Z,276.00
2017-12-03T11:08:18.963Z,280.00
2017-12-03T11:09:18.969Z,276.00
2017-12-03T11:10:18.917Z,284.00
2017-12-03T11:11:18.882Z,284.00
2017-12-03T11:12:18.867Z,288.00
2017-12-03T11:13:18.832Z,284.00
2017-12-03T11:14:18.799Z,288.00
2017-12-03T11:15:18.778Z,288.00
2017-12-03T11:16:18.745Z,280.00
2017-12-03T11:17:18.725Z,284.00
2017-12-03T11:18:18.702Z,292.00
2017-12-03T11:19:18.678Z,292.00
2017-12-03T11:20:18.638Z,296.00
2017-12-03T11:21:18.616Z,300.00
2017-12-03T11:22:18.581Z,296.00
2017-12-03T11:23:18.556Z,300.00
2017-12-03T11:24:18.538Z,300.00
2017-12-03T11:25:18.499Z,308.00
2017-12-03T11:26:18.478Z,312.00
2017-12-03T11:27:18.456Z,316.00
2017-12-03T11:28:18.461Z,316.00
2017-12-03T11:29:18.393Z,324.00
2017-12-03T11:30:18.372Z,328.00
2017-12-03T11:31:18.374Z,332.00
2017-12-03T11:32:18.316Z,340.00
2017-12-03T11:33:18.336Z,344.00
2017-12-03T11:34:18.335Z,344.00
2017-12-03T11:35:18.246Z,336.00
2017-12-03T11:36:18.230Z,340.00
2017-12-03T11:37:18.191Z,340.00
2017-12-03T11:38:18.154Z,328.00
2017-12-03T11:39:18.126Z,344.00
2017-12-03T11:40:18.096Z,340.00
2017-12-03T11:41:18.071Z,336.00
2017-12-03T11:42:18.051Z,336.00
2017-12-03T11:43:18.013Z,332.00
2017-12-03T11:44:17.988Z,332.00
2017-12-03T11:45:17.969Z,328.00
2017-12-03T11:46:17.933Z,328.00
2017-12-03T11:47:17.914Z,332.00
2017-12-03T11:48:17.885Z,332.00
2017-12-03T11:49:17.854Z,340.00
2017-12-03T11:50:17.828Z,344.00
2017-12-03T11:51:17.805Z,344.00
2017-12-03T11:52:17.769Z,348.00
2017-12-03T11:53:17.747Z,348.00
2017-12-03T11:54:17.726Z,356.00
2017-12-03T11:55:17.687Z,348.00
2017-12-03T11:56:17.666Z,360.00
2017-12-03T11:57:17.641Z,364.00
2017-12-03T11:58:17.606Z,372.00
2017-12-03T11:59:17.585Z,356.00
2017-12-03T12:00:17.562Z,356.00
2017-12-03T12:01:17.526Z,356.00
2017-12-03T12:02:17.520Z,328.00
2017-12-03T12:03:17.477Z,340.00
2017-12-03T12:04:17.456Z,324.00
2017-12-03T12:05:17.417Z,308.00
2017-12-03T12:06:17.396Z,308.00
2017-12-03T12:07:17.390Z,288.00
2017-12-03T12:08:17.350Z,284.00
2017-12-03T12:09:17.315Z,296.00
2017-12-03T12:10:17.282Z,284.00
2017-12-03T12:11:17.261Z,300.00
2017-12-03T12:12:17.234Z,304.00
2017-12-03T12:13:17.200Z,296.00
2017-12-03T12:14:17.172Z,288.00
2017-12-03T12:15:17.145Z,280.00
2017-12-03T12:16:17.116Z,280.00
2017-12-03T12:17:17.115Z,288.00
2017-12-03T12:18:17.066Z,296.00
2017-12-03T12:19:17.037Z,288.00
2017-12-03T12:20:17.052Z,284.00
2017-12-03T12:21:16.981Z,268.00
2017-12-03T12:22:16.978Z,248.00
2017-12-03T12:23:16.931Z,264.00
2017-12-03T12:24:16.902Z,268.00
2017-12-03T12:25:16.877Z,260.00
2017-12-03T12:26:16.880Z,240.00
2017-12-03T12:27:16.872Z,244.00
2017-12-03T12:28:16.796Z,252.00
2017-12-03T12:29:16.765Z,260.00
2017-12-03T12:30:16.744Z,240.00
2017-12-03T12:31:16.715Z,252.00
2017-12-03T12:32:16.706Z,260.00
2017-12-03T12:33:16.657Z,272.00
2017-12-03T12:34:16.636Z,268.00
2017-12-03T12:35:16.603Z,260.00
2017-12-03T12:36:16.576Z,256.00
2017-12-03T12:37:16.559Z,248.00
2017-12-03T12:38:16.538Z,256.00
2017-12-03T12:39:16.544Z,276.00
2017-12-03T12:40:16.472Z,312.00
2017-12-03T12:41:16.440Z,316.00
2017-12-03T12:42:16.414Z,320.00
2017-12-03T12:43:16.387Z,324.00
2017-12-03T12:44:16.357Z,320.00
2017-12-03T12:45:16.377Z,332.00
2017-12-03T12:46:16.312Z,344.00
2017-12-03T12:47:16.278Z,340.00
2017-12-03T12:48:16.250Z,352.00
2017-12-03T12:49:16.231Z,348.00
2017-12-03T12:50:16.196Z,348.00
2017-12-03T12:51:16.177Z,348.00
2017-12-03T12:52:16.140Z,332.00
2017-12-03T12:53:16.115Z,340.00